Tupelo Regional Airport
KTUP : now visible

Airfield :











YOU CAN JOIN US ON...

 
LOGIN :

Register | Disclaimer

   EN    FR    IT 

 









Legend :    VFR   Marginal VFR   IFR   Intensive IFR   Very Intensive IFR
Visi :
Ceiling :
>= 8 km
>= 3000ft
5 to 8 km
1000 to 3000 ft
1500m to 5 km
500 to 1000 ft
800 to 1500m
200 to 500 ft
< 800m
< 200 ft
Symbols :   Thunderstorms  Fog  Heavy snow  Heavy precipitations  Wind > 20 kt






- Airport Elevation : 346 ft
- IATA code : TUP


KTUP - Tupelo Regional

CURRENT METAR :
  • 282210Z 12005KT 10SM -RA FEW060 SCT090 OVC110 19/17 A2996 RMK AO2 LTG DSNT NE-S P0001 T01940172 $

EXPIRED METARs :
  • 282153Z 00000KT 6SM VCTS -RA BR FEW046 BKN100 OVC110 19/17 A2996 RMK AO2 WSHFT 2040 LTG DSNT ALQDS TSE26 SLP142 P0044 T01890172 $
  • 282140Z 00000KT 2 1/2SM -RA BR FEW050 BKN095 OVC110 18/17 A2996 RMK AO2 WSHFT 2040 VIS 3/4V5 LTG DSNT ALQDS TSE26 P0040 T01830167 $
  • 282126Z 00000KT 4SM VCTS -RA BR FEW014 BKN080 OVC100 18/17 A2996 RMK AO2 WSHFT 2040 LTG DSNT ALQDS TSE26 P0038 T01830167 $
  • 282100Z 25012G27KT 3/4SM +TSRA BR SCT018 BKN037 OVC049 18/16 A2998 RMK AO2 WSHFT 2040 LTG DSNT N AND SE AND W P0011 T01830161 $
  • 282053Z 26018G29KT 1/2SM +TSRA FEW019 BKN037 OVC095 19/16 A2997 RMK AO2 PK WND 25029/2049 WSHFT 2039 LTG DSNT ALQDS RAB43 TSB46 PRESRR SLP144 P0018 60018 T01890161 53003 $
  • 282046Z 29014G28KT 1 1/2SM TSRA FEW035 BKN050 OVC095 22/17 A2994 RMK AO2 PK WND 25028/2041 LTG DSNT SW-N RAB43 TSB46 PRESRR P0001 T02220167 $
  • 281953Z 17009KT 10SM FEW049 FEW060 SCT110 28/16 A2992 RMK AO2 SLP126 T02830161 $

TAF KTUP
Valid from the 28 at 20:00 until the 29 at 18:00 UTC


282019Z 2820/2918 19010KT P6SM VCTS BKN045CB
TEMPO 2821/2822 VRB15G30KT 2SM +TSRA BKN025CB
FM290200 18004KT P6SM VCSH SCT040 BKN100
FM290900 19003KT 6SM BR SCT012
FM291400 24005KT P6SM BKN020
FM291600 29006KT P6SM BKN035
KZME FIR / North America



MET'MAP, your aeronautical weather chart ! - Copyright ORBIFLY December 2007 - Disclaimer

ORBIFLY MET'MAP TEAM :

Programming & Development : Alexandra Zaïnal
Concept & original design : Baudouin d'Aumeries
Assistance for programming : Marc-Olivier Méhu
Technical & hardware support : Manuel Goepfert

Contact : metmap@orbifly.com




SOURCES & CREDITS :

   NOAA       Earth
Advisory